createdAt,value
2022-11-27T00:03:14.424Z,4.43
2022-11-27T00:08:16.300Z,3.97
2022-11-27T00:13:18.002Z,3.80
2022-11-27T00:18:19.861Z,3.45
2022-11-27T00:23:21.598Z,4.10
2022-11-27T00:28:23.420Z,4.25
2022-11-27T00:33:25.159Z,3.70
2022-11-27T00:38:26.837Z,3.92
2022-11-27T00:43:28.621Z,4.22
2022-11-27T00:48:30.270Z,4.13
2022-11-27T00:53:32.756Z,3.72
2022-11-27T00:58:37.908Z,4.28
2022-11-27T01:03:39.651Z,4.20
2022-11-27T01:08:42.589Z,4.53
2022-11-27T01:13:44.502Z,4.32
2022-11-27T01:18:47.960Z,4.55
2022-11-27T01:23:50.301Z,5.17
2022-11-27T01:28:53.711Z,4.95
2022-11-27T01:33:57.934Z,6.07
2022-11-27T01:39:00.694Z,6.25
2022-11-27T01:44:25.303Z,6.45
2022-11-27T01:49:32.019Z,7.30
2022-11-27T01:54:43.234Z,6.55
2022-11-27T01:59:48.012Z,8.70
2022-11-27T02:04:49.740Z,8.35
2022-11-27T02:09:51.541Z,7.93
2022-11-27T02:15:17.027Z,7.88
2022-11-27T02:20:30.663Z,8.77
2022-11-27T02:26:04.582Z,9.90
2022-11-27T02:31:10.040Z,7.78
2022-11-27T02:36:17.444Z,9.80
2022-11-27T02:41:28.727Z,10.23
2022-11-27T02:46:30.436Z,9.77
2022-11-27T02:51:41.616Z,9.73
2022-11-27T02:56:44.910Z,10.18
2022-11-27T03:01:52.701Z,8.17
2022-11-27T03:06:57.982Z,9.90
2022-11-27T03:11:59.833Z,10.75
2022-11-27T03:17:11.145Z,9.68
2022-11-27T03:22:13.039Z,10.38
2022-11-27T03:27:19.714Z,11.02
2022-11-27T03:32:21.976Z,9.70
2022-11-27T03:37:24.176Z,9.45
2022-11-27T03:42:50.543Z,10.25
2022-11-27T03:48:33.742Z,9.65
2022-11-27T03:53:53.270Z,9.00
2022-11-27T03:58:57.019Z,9.25
2022-11-27T04:03:58.891Z,9.35
2022-11-27T04:09:00.642Z,10.15
2022-11-27T04:14:02.424Z,9.65
2022-11-27T04:19:04.218Z,10.18
2022-11-27T04:24:06.075Z,9.75
2022-11-27T04:29:07.737Z,10.73
2022-11-27T04:34:09.417Z,9.25
2022-11-27T04:39:11.114Z,9.20
2022-11-27T04:44:13.357Z,8.63
2022-11-27T04:49:15.231Z,8.77
2022-11-27T04:54:17.214Z,8.90
2022-11-27T04:59:18.967Z,9.00
2022-11-27T05:04:21.215Z,8.75
2022-11-27T05:09:23.208Z,8.85
2022-11-27T05:14:29.167Z,9.07
2022-11-27T05:19:31.767Z,8.02
2022-11-27T05:24:33.703Z,7.95
2022-11-27T05:29:35.391Z,8.50
2022-11-27T05:34:37.020Z,7.60
2022-11-27T05:39:38.767Z,7.53
2022-11-27T05:44:40.816Z,7.13
2022-11-27T05:49:42.699Z,7.90
2022-11-27T05:54:44.354Z,7.70
2022-11-27T05:59:46.067Z,7.28
2022-11-27T06:04:47.815Z,6.88
2022-11-27T06:09:49.470Z,6.60
2022-11-27T06:14:51.135Z,6.97
2022-11-27T06:19:52.972Z,6.30
2022-11-27T06:24:54.725Z,7.00
2022-11-27T06:29:56.399Z,6.60
2022-11-27T06:34:58.185Z,6.47
2022-11-27T06:40:00.039Z,6.50
2022-11-27T06:45:01.884Z,6.05
2022-11-27T06:50:04.072Z,6.50
2022-11-27T06:55:05.889Z,6.13
2022-11-27T07:00:08.350Z,6.68
2022-11-27T07:05:10.062Z,6.05
2022-11-27T07:10:11.936Z,6.57
2022-11-27T07:15:13.618Z,6.88
2022-11-27T07:20:15.516Z,7.53
2022-11-27T07:25:17.293Z,6.65
2022-11-27T07:30:19.157Z,7.38
2022-11-27T07:35:20.931Z,8.40
2022-11-27T07:40:22.693Z,6.63
2022-11-27T07:45:24.334Z,7.63
2022-11-27T07:50:26.045Z,7.60
2022-11-27T07:55:27.811Z,7.78
2022-11-27T08:00:29.499Z,9.05
2022-11-27T08:05:34.309Z,8.15
2022-11-27T08:10:37.224Z,9.18
2022-11-27T08:15:38.851Z,8.73
2022-11-27T08:20:40.558Z,8.82
2022-11-27T08:25:42.288Z,8.25
2022-11-27T08:30:44.000Z,7.93
2022-11-27T08:35:49.248Z,8.70
2022-11-27T08:40:59.143Z,8.23
2022-11-27T08:46:04.734Z,9.43
2022-11-27T08:51:12.146Z,9.65
2022-11-27T08:56:19.570Z,9.13
2022-11-27T09:01:27.523Z,9.73
2022-11-27T09:06:31.759Z,10.50
2022-11-27T09:16:36.227Z,10.65
2022-11-27T09:21:38.833Z,10.65
2022-11-27T09:26:40.528Z,10.38
2022-11-27T09:31:42.432Z,11.07
2022-11-27T09:36:44.172Z,11.20
2022-11-27T09:41:54.956Z,11.98
2022-11-27T09:46:59.606Z,13.57
2022-11-27T09:52:07.750Z,12.52
2022-11-27T09:57:16.489Z,10.98
2022-11-27T10:02:24.122Z,9.52
2022-11-27T10:07:53.091Z,10.18
2022-11-27T10:13:18.442Z,9.48
2022-11-27T10:18:23.903Z,9.80
2022-11-27T10:24:01.781Z,9.27
2022-11-27T10:29:06.747Z,8.73
2022-11-27T10:34:26.134Z,8.18
2022-11-27T10:39:42.189Z,8.75
2022-11-27T10:45:08.145Z,7.95
2022-11-27T10:50:18.498Z,7.63
2022-11-27T10:55:51.863Z,7.50
2022-11-27T11:01:09.348Z,7.80
2022-11-27T11:06:23.421Z,7.53
2022-11-27T11:16:35.184Z,6.68
2022-11-27T11:21:42.533Z,6.22
2022-11-27T11:26:59.056Z,5.60
2022-11-27T11:32:14.727Z,6.80
2022-11-27T11:37:40.089Z,6.05
2022-11-27T11:43:00.428Z,6.10
2022-11-27T11:48:19.200Z,5.82
2022-11-27T11:53:45.485Z,5.88
2022-11-27T11:59:03.728Z,6.13
2022-11-27T12:04:41.739Z,5.85
2022-11-27T12:10:01.978Z,6.85
2022-11-27T12:15:06.933Z,6.82
2022-11-27T12:21:00.432Z,6.07
2022-11-27T12:26:16.895Z,5.68
2022-11-27T12:31:18.664Z,6.18
2022-11-27T12:36:27.983Z,5.55
2022-11-27T12:41:44.130Z,5.82
2022-11-27T12:46:48.909Z,5.20
2022-11-27T12:52:01.050Z,5.78
2022-11-27T12:57:10.085Z,5.50
2022-11-27T13:02:20.526Z,5.35
2022-11-27T13:07:28.236Z,4.88
2022-11-27T13:12:35.426Z,4.90
2022-11-27T13:17:42.323Z,4.68
2022-11-27T13:22:44.923Z,4.57
2022-11-27T13:27:50.354Z,4.80
2022-11-27T13:32:58.011Z,4.72
2022-11-27T13:38:13.555Z,4.53
2022-11-27T13:43:43.413Z,5.07
2022-11-27T13:49:03.565Z,5.50
2022-11-27T13:54:16.038Z,5.13
2022-11-27T13:59:21.534Z,5.35
2022-11-27T14:04:23.354Z,4.88
2022-11-27T14:09:38.386Z,4.75
2022-11-27T14:14:42.567Z,5.47
2022-11-27T14:19:46.173Z,5.18
2022-11-27T14:24:55.602Z,5.38
2022-11-27T14:29:57.446Z,5.63
2022-11-27T14:34:59.144Z,5.97
2022-11-27T14:40:00.952Z,6.07
2022-11-27T14:45:08.603Z,6.57
2022-11-27T14:50:14.353Z,6.30
2022-11-27T14:55:16.971Z,6.28
2022-11-27T15:00:25.176Z,5.85
2022-11-27T15:05:29.682Z,6.30
2022-11-27T15:10:40.311Z,6.15
2022-11-27T15:15:44.100Z,6.10
2022-11-27T15:20:46.681Z,6.32
2022-11-27T15:26:03.052Z,6.10
2022-11-27T15:31:28.845Z,6.47
2022-11-27T15:36:43.063Z,6.80
2022-11-27T15:41:59.939Z,7.13
2022-11-27T15:47:03.420Z,7.35
2022-11-27T15:52:05.135Z,7.60
2022-11-27T15:57:06.866Z,8.13
2022-11-27T16:02:17.249Z,7.22
2022-11-27T16:07:19.637Z,7.50
2022-11-27T16:12:21.399Z,7.68
2022-11-27T16:17:23.179Z,8.20
2022-11-27T16:22:24.917Z,8.43
2022-11-27T16:27:26.574Z,7.30
2022-11-27T16:32:28.228Z,7.30
2022-11-27T16:37:29.892Z,7.63
2022-11-27T16:42:31.609Z,7.47
2022-11-27T16:47:33.996Z,7.07
2022-11-27T16:52:36.013Z,7.25
2022-11-27T16:57:37.780Z,7.32
2022-11-27T17:02:39.464Z,7.50
2022-11-27T17:07:43.808Z,7.75
2022-11-27T17:12:45.619Z,7.28
2022-11-27T17:17:47.359Z,9.00
2022-11-27T17:22:49.125Z,7.75
2022-11-27T17:27:52.915Z,8.07
2022-11-27T17:32:56.310Z,8.25
2022-11-27T17:37:57.973Z,8.00
2022-11-27T17:42:59.814Z,9.63
2022-11-27T17:48:02.185Z,10.32
2022-11-27T17:53:03.857Z,10.90
2022-11-27T17:58:10.814Z,9.93
2022-11-27T18:03:12.470Z,9.52
2022-11-27T18:08:19.161Z,11.23
2022-11-27T18:13:20.818Z,11.85
2022-11-27T18:18:22.977Z,10.20
2022-11-27T18:23:24.599Z,11.88
2022-11-27T18:28:27.869Z,12.75
2022-11-27T18:33:29.610Z,11.57
2022-11-27T18:38:32.705Z,11.50
2022-11-27T18:43:35.335Z,11.57
2022-11-27T18:48:39.132Z,10.48
2022-11-27T18:53:41.889Z,11.82
2022-11-27T18:58:45.606Z,10.52
2022-11-27T19:03:47.878Z,10.63
2022-11-27T19:08:49.975Z,9.75
2022-11-27T19:13:55.061Z,9.45
2022-11-27T19:18:58.430Z,9.82
2022-11-27T19:24:10.615Z,9.50
2022-11-27T19:29:14.495Z,11.02
2022-11-27T19:34:17.190Z,10.77
2022-11-27T19:39:19.367Z,11.35
2022-11-27T19:44:32.716Z,10.60
2022-11-27T19:49:34.408Z,9.98
2022-11-27T19:54:36.120Z,10.27
2022-11-27T19:59:39.706Z,10.07
2022-11-27T20:04:42.097Z,9.43
2022-11-27T20:09:45.046Z,8.50
2022-11-27T20:14:46.814Z,8.85
2022-11-27T20:19:48.600Z,8.80
2022-11-27T20:25:17.326Z,8.55
2022-11-27T20:30:12.279Z,7.55
2022-11-27T20:35:17.431Z,7.72
2022-11-27T20:40:20.369Z,8.05
2022-11-27T20:45:22.129Z,7.32
2022-11-27T20:50:23.867Z,7.20
2022-11-27T20:55:25.884Z,8.15
2022-11-27T21:00:27.524Z,8.45
2022-11-27T21:05:29.241Z,9.00
2022-11-27T21:10:30.855Z,8.07
2022-11-27T21:15:32.610Z,8.00
2022-11-27T21:20:34.487Z,7.75
2022-11-27T21:25:38.269Z,7.13
2022-11-27T21:30:40.090Z,7.13
2022-11-27T21:35:41.892Z,6.97
2022-11-27T21:40:44.631Z,6.78
2022-11-27T21:45:47.642Z,6.70
2022-11-27T21:50:49.432Z,6.30
2022-11-27T21:55:51.207Z,6.93
2022-11-27T22:00:53.282Z,7.18
2022-11-27T22:06:04.474Z,7.75
2022-11-27T22:17:28.592Z,7.30
2022-11-27T22:22:30.223Z,7.70
2022-11-27T22:27:31.988Z,7.40
2022-11-27T22:32:33.659Z,8.40
2022-11-27T22:37:35.270Z,8.65
2022-11-27T22:42:36.984Z,8.73
2022-11-27T22:47:38.595Z,8.10
2022-11-27T22:52:40.291Z,8.18
2022-11-27T22:57:42.009Z,7.43
2022-11-27T23:02:43.755Z,7.53
2022-11-27T23:07:45.464Z,7.40
2022-11-27T23:12:47.088Z,7.50
2022-11-27T23:17:49.690Z,7.55
2022-11-27T23:22:52.695Z,7.05
2022-11-27T23:27:54.291Z,7.40
2022-11-27T23:32:56.002Z,6.88
2022-11-27T23:37:58.024Z,7.32
2022-11-27T23:42:59.723Z,7.25
2022-11-27T23:48:01.404Z,7.38
2022-11-27T23:53:02.985Z,8.05
2022-11-27T23:58:04.632Z,8.15
